Almirante Brown, Argentina
Current Conditions -  °F | °C
As of 12:00 AM on Saturday 01 Nov 2014 (Local Time) from SAEZ Reporting Station
Clear Clear  
Wind Chill: 11°   Ceiling: Unl
Heat Index: 11°   Visibility: 6mi
Dew Point:   Wind: 14mph
Humidity: 67%   Direction: 150°SSE
Pressure: 30.12"   Gusts: NA
Location:  34.8°S, 58.38°W
Report Text: SAEZ 010300Z 15012KT 120V190 CAVOK 11/05 Q1020
Loading
Personal Weather Stations






























Interactive Weather Map
Tropical Storm Tracking
New forecast layout! Learn more

10-Day Weather Forecast

Advertisements
Track Severe Weather on mobile